Saint-Jovite, Quebec

11:33 AM EST on February 10, 2016 (GMT -0500)
Lac a L'ile | | Change Station
CLOSE
Current Station
Personal Weather Station
Location: Val-des-Lacs, QUéBEC
Elevation: 1657 ft
Nearby Weather Stations

Elev 1657 ft 46.20 °N, 74.33 °W | Updated 7 seconds ago

Light Snow
Light Snow
19.8 °F
Feels Like 20 °F
N
0.0
Wind Variable Wind from WNW
Gusts 0.0 mph

Today is forecast to be nearly the same temperature as yesterday.

Today
High -- | Low -- °F
--% Chance of Precip.
Yesterday
High -- | Low -- °F
Precip. -- in
Pressure 29.57 in
Visibility 3.0 miles
Clouds Overcast 2800 ft
Windchill 20 °F
Dew Point 4 °F
Humidity 50%
Rainfall 0.00 in
Snow Depth Not available.
7:09 AM 5:16 PM
Waxing Crescent, 6% visible
METAR CYMX 101600Z 06004KT 360V080 3SM -SN OVC028 M07/M10 A2954 RMK SN3SC5 VIS VRB 2-4 SLP011
Pressure 29.57 in
Visibility 3.0 miles
Clouds Overcast 2800 ft
Windchill 20 °F
Dew Point 4 °F
Humidity 50%
Rainfall 0.00 in
Snow Depth Not available.
7:09 AM 5:16 PM
Waxing Crescent, 6% visible
METAR CYMX 101600Z 06004KT 360V080 3SM -SN OVC028 M07/M10 A2954 RMK SN3SC5 VIS VRB 2-4 SLP011

10-Day Weather Forecast

Heavy Snow conditions possible.

Almanac

Astronomy

Feb. 10, 2016 Rise Set
Actual Time
Civil Twilight
Nautical Twilight
Astronomical Twilight
Moon
Length of Visible Light
Length of Day
Tomorrow will be .
, % of the Moon is Illuminated

Today's Extremes

Country Highs Country Lows

Community

WunderPhotos

Upload Photos

1,891,881 photos uploaded!

WunderBlog® & News

Nearby

Air Quality

  Air Quality AQ Index Pollutant
Not available.

Snow Depth

Station Depth Elevation

Earthquake Activity

City Distance Mag. Time & Date
Minimum magnitude displayed is 2.5.

Coastal Water Temperatures

Place Temperature

Stations

Nearby Weather Stations

Station Location Temp. Windchill Dew Point Humidity Wind Precip. Elev Updated Type
                   

Watches & Warnings

There are currently no watches in effect.